createdAt,value
2018-07-26T00:02:06.804Z,101031.00
2018-07-26T00:04:35.669Z,101028.00
2018-07-26T00:07:04.804Z,101033.00
2018-07-26T00:09:33.671Z,101033.00
2018-07-26T00:12:02.547Z,101036.00
2018-07-26T00:14:31.400Z,101030.00
2018-07-26T00:17:00.301Z,101030.00
2018-07-26T00:19:29.103Z,101032.00
2018-07-26T00:21:57.942Z,101029.00
2018-07-26T00:24:26.890Z,101025.00
2018-07-26T00:26:55.740Z,101033.00
2018-07-26T00:29:24.535Z,101030.00
2018-07-26T00:31:53.380Z,101021.00
2018-07-26T00:34:22.206Z,101017.00
2018-07-26T00:36:51.040Z,101027.00
2018-07-26T00:39:19.859Z,101018.00
2018-07-26T00:41:48.684Z,101016.00
2018-07-26T00:44:17.482Z,101020.00
2018-07-26T00:46:46.326Z,101022.00
2018-07-26T00:49:15.159Z,101018.00
2018-07-26T00:51:43.986Z,101025.00
2018-07-26T00:54:12.852Z,101026.00
2018-07-26T00:56:41.898Z,101024.00
2018-07-26T00:59:10.727Z,101029.00
2018-07-26T01:01:39.552Z,101016.00
2018-07-26T01:04:08.432Z,101020.00
2018-07-26T01:06:37.276Z,101016.00
2018-07-26T01:09:09.729Z,101019.00
2018-07-26T01:11:39.116Z,101021.00
2018-07-26T01:14:07.979Z,101023.00
2018-07-26T01:16:36.807Z,101024.00
2018-07-26T01:19:05.938Z,101032.00
2018-07-26T01:21:34.784Z,101030.00
2018-07-26T01:24:03.859Z,101042.00
2018-07-26T01:26:32.721Z,101031.00
2018-07-26T01:29:01.572Z,101036.00
2018-07-26T01:31:30.478Z,101026.00
2018-07-26T01:33:59.347Z,101023.00
2018-07-26T01:36:28.142Z,101029.00
2018-07-26T01:38:56.996Z,101023.00
2018-07-26T01:41:25.816Z,101025.00
2018-07-26T01:44:12.327Z,101024.00
2018-07-26T01:46:41.193Z,101031.00
2018-07-26T01:49:10.129Z,101032.00
2018-07-26T01:51:38.964Z,101027.00
2018-07-26T01:54:07.941Z,101033.00
2018-07-26T01:56:36.794Z,101034.00
2018-07-26T01:59:05.705Z,101027.00
2018-07-26T02:01:34.575Z,101027.00
2018-07-26T02:04:03.409Z,101030.00
2018-07-26T02:06:32.260Z,101024.00
2018-07-26T02:09:01.058Z,101031.00
2018-07-26T02:11:29.907Z,101031.00
2018-07-26T02:13:58.742Z,101026.00
2018-07-26T02:16:27.558Z,101030.00
2018-07-26T02:18:56.380Z,101023.00
2018-07-26T02:21:25.207Z,101027.00
2018-07-26T02:23:54.096Z,101025.00
2018-07-26T02:26:22.924Z,101026.00
2018-07-26T02:28:51.775Z,101029.00
2018-07-26T02:31:20.603Z,101023.00
2018-07-26T02:33:49.450Z,101021.00
2018-07-26T02:36:18.331Z,101016.00
2018-07-26T02:38:47.152Z,101026.00
2018-07-26T02:41:16.005Z,101029.00
2018-07-26T02:43:44.882Z,101029.00
2018-07-26T02:46:13.728Z,101027.00
2018-07-26T02:48:42.583Z,101031.00
2018-07-26T02:51:11.402Z,101031.00
2018-07-26T02:53:40.220Z,101033.00
2018-07-26T02:56:09.157Z,101027.00
2018-07-26T02:58:38.021Z,101032.00
2018-07-26T03:01:06.923Z,101041.00
2018-07-26T03:03:35.805Z,101034.00
2018-07-26T03:06:04.689Z,101042.00
2018-07-26T03:08:33.499Z,101042.00
2018-07-26T03:11:02.343Z,101046.00
2018-07-26T03:13:31.172Z,101045.00
2018-07-26T03:16:00.005Z,101046.00
2018-07-26T03:18:28.829Z,101046.00
2018-07-26T03:20:57.718Z,101047.00
2018-07-26T03:23:26.524Z,101041.00
2018-07-26T03:25:55.352Z,101040.00
2018-07-26T03:28:24.207Z,101045.00
2018-07-26T03:30:53.059Z,101043.00
2018-07-26T03:33:21.997Z,101053.00
2018-07-26T03:35:50.864Z,101043.00
2018-07-26T03:38:19.696Z,101042.00
2018-07-26T03:40:48.502Z,101026.00
2018-07-26T03:43:17.327Z,101044.00
2018-07-26T03:45:46.227Z,101047.00
2018-07-26T03:48:15.045Z,101050.00
2018-07-26T03:50:43.852Z,101059.00
2018-07-26T03:53:12.729Z,101056.00
2018-07-26T03:55:41.652Z,101060.00
2018-07-26T03:58:10.505Z,101053.00
2018-07-26T04:00:39.336Z,101058.00
2018-07-26T04:03:08.176Z,101064.00
2018-07-26T04:05:37.110Z,101066.00
2018-07-26T04:08:06.147Z,101066.00
2018-07-26T04:10:34.963Z,101070.00
2018-07-26T04:13:04.028Z,101069.00
2018-07-26T04:15:32.838Z,101069.00
2018-07-26T04:18:05.138Z,101068.00
2018-07-26T04:20:34.326Z,101069.00
2018-07-26T04:23:03.364Z,101074.00
2018-07-26T04:25:32.681Z,101070.00
2018-07-26T04:28:02.309Z,101062.00
2018-07-26T04:30:31.174Z,101062.00
2018-07-26T04:33:00.012Z,101062.00
2018-07-26T04:35:28.851Z,101060.00
2018-07-26T04:37:57.684Z,101061.00
2018-07-26T04:40:26.568Z,101064.00
2018-07-26T04:42:55.494Z,101067.00
2018-07-26T04:45:24.375Z,101070.00
2018-07-26T04:47:53.166Z,101074.00
2018-07-26T04:50:22.064Z,101071.00
2018-07-26T04:52:50.892Z,101078.00
2018-07-26T04:55:19.764Z,101081.00
2018-07-26T04:57:48.622Z,101078.00
2018-07-26T05:00:17.422Z,101083.00
2018-07-26T05:02:46.369Z,101078.00
2018-07-26T05:05:15.254Z,101088.00
2018-07-26T05:07:44.173Z,101086.00
2018-07-26T05:10:12.995Z,101088.00
2018-07-26T05:12:41.822Z,101083.00
2018-07-26T05:15:10.707Z,101092.00
2018-07-26T05:17:39.539Z,101090.00
2018-07-26T05:20:08.861Z,101088.00
2018-07-26T05:22:38.475Z,101081.00
2018-07-26T05:25:07.381Z,101081.00
2018-07-26T05:27:36.153Z,101086.00
2018-07-26T05:30:05.615Z,101093.00
2018-07-26T05:32:34.475Z,101086.00
2018-07-26T05:35:03.301Z,101077.00
2018-07-26T05:37:32.155Z,101083.00
2018-07-26T05:40:01.046Z,101077.00
2018-07-26T05:42:29.965Z,101079.00
2018-07-26T05:44:58.791Z,101080.00
2018-07-26T05:47:27.639Z,101085.00
2018-07-26T05:49:56.459Z,101079.00
2018-07-26T05:52:25.320Z,101084.00
2018-07-26T05:54:54.106Z,101088.00
2018-07-26T05:57:22.940Z,101087.00
2018-07-26T05:59:51.788Z,101100.00
2018-07-26T06:02:20.624Z,101101.00
2018-07-26T06:04:49.594Z,101103.00
2018-07-26T06:07:18.428Z,101103.00
2018-07-26T06:09:47.524Z,101101.00
2018-07-26T06:12:17.170Z,101102.00
2018-07-26T06:14:46.025Z,101110.00
2018-07-26T06:17:14.876Z,101106.00
2018-07-26T06:19:43.701Z,101111.00
2018-07-26T06:22:12.571Z,101117.00
2018-07-26T06:24:41.418Z,101110.00
2018-07-26T06:27:10.359Z,101119.00
2018-07-26T06:29:39.356Z,101113.00
2018-07-26T06:32:08.200Z,101116.00
2018-07-26T06:34:37.053Z,101126.00
2018-07-26T06:37:06.267Z,101117.00
2018-07-26T06:39:35.185Z,101125.00
2018-07-26T06:42:04.032Z,101123.00
2018-07-26T06:44:32.959Z,101123.00
2018-07-26T06:47:01.871Z,101130.00
2018-07-26T06:49:30.700Z,101124.00
2018-07-26T06:51:59.575Z,101121.00
2018-07-26T06:54:28.596Z,101136.00
2018-07-26T06:56:57.470Z,101131.00
2018-07-26T06:59:26.383Z,101128.00
2018-07-26T07:01:55.277Z,101133.00
2018-07-26T07:04:24.385Z,101116.00
2018-07-26T07:06:53.239Z,101138.00
2018-07-26T07:09:22.121Z,101140.00
2018-07-26T07:11:50.993Z,101139.00
2018-07-26T07:14:19.896Z,101138.00
2018-07-26T07:16:48.690Z,101143.00
2018-07-26T07:19:17.559Z,101148.00
2018-07-26T07:21:46.458Z,101150.00
2018-07-26T07:24:20.370Z,101150.00
2018-07-26T07:26:51.354Z,101155.00
2018-07-26T07:29:20.257Z,101151.00
2018-07-26T07:31:49.145Z,101150.00
2018-07-26T07:34:17.975Z,101149.00
2018-07-26T07:36:46.880Z,101149.00
2018-07-26T07:39:15.750Z,101161.00
2018-07-26T07:41:44.715Z,101163.00
2018-07-26T07:44:13.491Z,101156.00
2018-07-26T07:46:42.403Z,101158.00
2018-07-26T07:49:11.252Z,101159.00
2018-07-26T07:51:40.088Z,101160.00
2018-07-26T07:54:08.942Z,101164.00
2018-07-26T07:56:39.031Z,101160.00
2018-07-26T07:59:08.180Z,101163.00
2018-07-26T08:01:37.928Z,101160.00
2018-07-26T08:04:07.063Z,101167.00
2018-07-26T08:06:35.895Z,101167.00
2018-07-26T08:09:09.594Z,101165.00
2018-07-26T08:11:38.432Z,101167.00
2018-07-26T08:14:07.903Z,101174.00
2018-07-26T08:16:36.998Z,101171.00
2018-07-26T08:19:06.054Z,101169.00
2018-07-26T08:21:34.897Z,101170.00
2018-07-26T08:24:03.840Z,101172.00
2018-07-26T08:26:33.713Z,101167.00
2018-07-26T08:29:02.539Z,101175.00
2018-07-26T08:31:31.374Z,101174.00
2018-07-26T08:34:00.252Z,101173.00
2018-07-26T08:36:29.331Z,101173.00
2018-07-26T08:38:58.512Z,101183.00
2018-07-26T08:41:27.375Z,101179.00
2018-07-26T08:43:56.232Z,101187.00
2018-07-26T08:46:25.102Z,101172.00
2018-07-26T08:48:53.993Z,101178.00
2018-07-26T08:51:22.876Z,101176.00
2018-07-26T08:53:52.648Z,101179.00
2018-07-26T08:56:21.491Z,101180.00
2018-07-26T08:58:50.351Z,101182.00
2018-07-26T09:01:19.357Z,101186.00
2018-07-26T09:03:48.265Z,101181.00
2018-07-26T09:06:17.098Z,101185.00
2018-07-26T09:08:45.946Z,101177.00
2018-07-26T09:11:14.801Z,101181.00
2018-07-26T09:13:43.749Z,101186.00
2018-07-26T09:16:12.704Z,101180.00
2018-07-26T09:18:41.533Z,101178.00
2018-07-26T09:21:10.446Z,101182.00
2018-07-26T09:23:39.258Z,101177.00
2018-07-26T09:26:08.271Z,101179.00
2018-07-26T09:28:37.075Z,101174.00
2018-07-26T09:31:05.919Z,101179.00
2018-07-26T09:33:34.731Z,101178.00
2018-07-26T09:36:03.651Z,101173.00
2018-07-26T09:38:32.462Z,101176.00
2018-07-26T09:41:01.472Z,101173.00
2018-07-26T09:43:30.310Z,101181.00
2018-07-26T09:45:59.127Z,101180.00
2018-07-26T09:48:28.026Z,101175.00
2018-07-26T09:50:56.916Z,101171.00
2018-07-26T09:53:26.381Z,101172.00
2018-07-26T09:55:55.220Z,101169.00
2018-07-26T09:58:24.014Z,101175.00
2018-07-26T10:00:58.178Z,101170.00
2018-07-26T10:03:27.099Z,101166.00
2018-07-26T10:05:56.206Z,101161.00
2018-07-26T10:08:25.079Z,101167.00
2018-07-26T10:10:53.960Z,101161.00
2018-07-26T10:13:22.752Z,101157.00
2018-07-26T10:15:51.580Z,101160.00
2018-07-26T10:18:20.433Z,101159.00
2018-07-26T10:20:49.312Z,101164.00
2018-07-26T10:23:18.195Z,101160.00
2018-07-26T10:25:47.009Z,101156.00
2018-07-26T10:28:15.851Z,101158.00
2018-07-26T10:30:44.697Z,101158.00
2018-07-26T10:33:13.552Z,101151.00
2018-07-26T10:35:42.382Z,101153.00
2018-07-26T10:38:11.216Z,101156.00
2018-07-26T10:40:40.056Z,101148.00
2018-07-26T10:43:08.885Z,101150.00
2018-07-26T10:45:38.116Z,101148.00
2018-07-26T10:48:07.248Z,101155.00
2018-07-26T10:50:36.101Z,101151.00
2018-07-26T10:53:05.000Z,101148.00
2018-07-26T10:55:33.842Z,101148.00
2018-07-26T10:58:02.648Z,101154.00
2018-07-26T11:00:31.475Z,101141.00
2018-07-26T11:03:00.450Z,101140.00
2018-07-26T11:05:29.691Z,101133.00
2018-07-26T11:07:58.591Z,101134.00
2018-07-26T11:10:27.874Z,101132.00
2018-07-26T11:12:56.692Z,101132.00
2018-07-26T11:15:30.354Z,101140.00
2018-07-26T11:18:00.369Z,101145.00
2018-07-26T11:20:29.259Z,101131.00
2018-07-26T11:22:58.125Z,101137.00
2018-07-26T11:25:26.929Z,101140.00
2018-07-26T11:27:56.059Z,101135.00
2018-07-26T11:30:25.157Z,101138.00
2018-07-26T11:32:53.997Z,101127.00
2018-07-26T11:35:22.909Z,101136.00
2018-07-26T11:37:51.709Z,101128.00
2018-07-26T11:40:20.788Z,101126.00
2018-07-26T11:42:49.620Z,101125.00
2018-07-26T11:45:18.532Z,101115.00
2018-07-26T11:47:47.380Z,101120.00
2018-07-26T11:50:16.233Z,101122.00
2018-07-26T11:52:45.114Z,101112.00
2018-07-26T11:55:13.943Z,101102.00
2018-07-26T11:57:42.824Z,101110.00
2018-07-26T12:00:12.603Z,101110.00
2018-07-26T12:02:41.394Z,101108.00
2018-07-26T12:05:10.298Z,101103.00
2018-07-26T12:07:39.129Z,101103.00
2018-07-26T12:10:07.921Z,101100.00
2018-07-26T12:12:36.765Z,101093.00
2018-07-26T12:15:05.740Z,101090.00
2018-07-26T12:17:34.712Z,101083.00
2018-07-26T12:20:03.605Z,101093.00
2018-07-26T12:22:34.592Z,101079.00
2018-07-26T12:25:03.431Z,101074.00
2018-07-26T12:27:32.285Z,101085.00
2018-07-26T12:30:01.262Z,101077.00
2018-07-26T12:32:30.081Z,101081.00
2018-07-26T12:34:58.886Z,101075.00
2018-07-26T12:37:27.709Z,101071.00
2018-07-26T12:39:56.376Z,101063.00
2018-07-26T12:42:25.262Z,101059.00
2018-07-26T12:44:54.048Z,101072.00
2018-07-26T12:47:42.380Z,101064.00
2018-07-26T12:50:11.178Z,101067.00
2018-07-26T12:52:40.071Z,101063.00
2018-07-26T12:55:08.916Z,101059.00
2018-07-26T12:57:37.753Z,101061.00
2018-07-26T13:00:07.816Z,101046.00
2018-07-26T13:02:36.615Z,101037.00
2018-07-26T13:08:02.544Z,101051.00
2018-07-26T13:10:31.970Z,101044.00
2018-07-26T13:13:00.779Z,101043.00
2018-07-26T13:15:29.616Z,101036.00
2018-07-26T13:17:58.624Z,101037.00
2018-07-26T13:22:41.840Z,101035.00
2018-07-26T13:25:10.733Z,101039.00
2018-07-26T13:27:39.531Z,101049.00
2018-07-26T13:30:08.376Z,101032.00
2018-07-26T13:32:37.262Z,101040.00
2018-07-26T13:35:06.217Z,101043.00
2018-07-26T13:37:35.064Z,101035.00
2018-07-26T13:40:03.896Z,101026.00
2018-07-26T13:42:32.837Z,101028.00
2018-07-26T13:45:01.745Z,101028.00
2018-07-26T13:47:31.199Z,101020.00
2018-07-26T13:50:00.188Z,101025.00
2018-07-26T13:52:29.005Z,101029.00
2018-07-26T13:54:57.867Z,101021.00
2018-07-26T13:57:26.707Z,101027.00
2018-07-26T13:59:55.589Z,101031.00
2018-07-26T14:02:24.565Z,101027.00
2018-07-26T14:04:53.399Z,101025.00
2018-07-26T14:07:22.385Z,101011.00
2018-07-26T14:09:51.385Z,101005.00
2018-07-26T14:12:20.217Z,101000.00
2018-07-26T14:14:49.031Z,100999.00
2018-07-26T14:17:17.855Z,101013.00
2018-07-26T14:19:46.803Z,101020.00
2018-07-26T14:22:15.668Z,101016.00
2018-07-26T14:24:44.464Z,101017.00
2018-07-26T14:27:13.405Z,101020.00
2018-07-26T14:29:42.224Z,101013.00
2018-07-26T14:32:11.161Z,101017.00
2018-07-26T14:34:40.013Z,101009.00
2018-07-26T14:37:08.908Z,101006.00
2018-07-26T14:39:37.748Z,101005.00
2018-07-26T14:42:06.560Z,101008.00
2018-07-26T14:44:35.429Z,101011.00
2018-07-26T14:47:04.244Z,101015.00
2018-07-26T14:49:33.121Z,101011.00
2018-07-26T14:52:01.986Z,101012.00
2018-07-26T14:54:30.915Z,100998.00
2018-07-26T14:56:59.732Z,101005.00
2018-07-26T14:59:28.599Z,101000.00
2018-07-26T15:01:58.205Z,101003.00
2018-07-26T15:04:27.002Z,100993.00
2018-07-26T15:06:55.882Z,100991.00
2018-07-26T15:09:24.860Z,101005.00
2018-07-26T15:14:50.986Z,100992.00
2018-07-26T15:17:19.824Z,100990.00
2018-07-26T15:19:48.636Z,100996.00
2018-07-26T15:22:17.522Z,100986.00
2018-07-26T15:24:46.377Z,100988.00
2018-07-26T15:27:15.191Z,100994.00
2018-07-26T15:29:44.086Z,100992.00
2018-07-26T15:32:12.922Z,100996.00
2018-07-26T15:34:41.711Z,101000.00
2018-07-26T15:37:10.530Z,100995.00
2018-07-26T15:39:39.416Z,100993.00
2018-07-26T15:42:08.572Z,100986.00
2018-07-26T15:44:37.648Z,100993.00
2018-07-26T15:47:06.466Z,100991.00
2018-07-26T15:49:35.266Z,100997.00
2018-07-26T15:52:04.158Z,100992.00
2018-07-26T15:54:33.962Z,100991.00
2018-07-26T15:57:02.849Z,100993.00
2018-07-26T15:59:31.649Z,100998.00
2018-07-26T16:02:00.497Z,100991.00
2018-07-26T16:04:29.964Z,100991.00
2018-07-26T16:06:58.860Z,100987.00
2018-07-26T16:09:27.748Z,100989.00
2018-07-26T16:11:56.544Z,100986.00
2018-07-26T16:14:25.724Z,100986.00
2018-07-26T16:16:54.589Z,100991.00
2018-07-26T16:19:23.406Z,100986.00
2018-07-26T16:21:52.245Z,100988.00
2018-07-26T16:24:21.058Z,100992.00
2018-07-26T16:26:49.885Z,100986.00
2018-07-26T16:29:19.028Z,100984.00
2018-07-26T16:31:47.910Z,100985.00
2018-07-26T16:34:16.748Z,100988.00
2018-07-26T16:36:45.649Z,100985.00
2018-07-26T16:39:14.500Z,100987.00
2018-07-26T16:41:43.348Z,100986.00
2018-07-26T16:44:12.198Z,100991.00
2018-07-26T16:46:41.052Z,100987.00
2018-07-26T16:49:09.992Z,100989.00
2018-07-26T16:51:38.884Z,100994.00
2018-07-26T16:54:07.729Z,100993.00
2018-07-26T16:56:36.538Z,100993.00
2018-07-26T16:59:05.420Z,101003.00
2018-07-26T17:01:34.336Z,100994.00
2018-07-26T17:04:03.139Z,100986.00
2018-07-26T17:06:31.968Z,100990.00
2018-07-26T17:09:00.803Z,100993.00
2018-07-26T17:11:29.660Z,100997.00
2018-07-26T17:13:58.584Z,101000.00
2018-07-26T17:16:27.419Z,100999.00
2018-07-26T17:18:56.312Z,100990.00
2018-07-26T17:24:22.180Z,100998.00
2018-07-26T17:26:51.026Z,101001.00
2018-07-26T17:29:19.896Z,101001.00
2018-07-26T17:31:48.737Z,101004.00
2018-07-26T17:34:17.681Z,101001.00
2018-07-26T17:36:46.524Z,101000.00
2018-07-26T17:39:15.424Z,101001.00
2018-07-26T17:41:44.253Z,101008.00
2018-07-26T17:44:13.104Z,101006.00
2018-07-26T17:46:42.027Z,101008.00
2018-07-26T17:49:10.886Z,101000.00
2018-07-26T17:51:39.743Z,101003.00
2018-07-26T17:54:08.696Z,101007.00
2018-07-26T17:56:37.602Z,101011.00
2018-07-26T17:59:06.895Z,101012.00
2018-07-26T18:01:35.757Z,101011.00
2018-07-26T18:04:04.558Z,101014.00
2018-07-26T18:06:33.392Z,101017.00
2018-07-26T18:09:02.236Z,101018.00
2018-07-26T18:11:31.080Z,101012.00
2018-07-26T18:13:59.868Z,101021.00
2018-07-26T18:16:28.724Z,101017.00
2018-07-26T18:18:57.600Z,101015.00
2018-07-26T18:21:26.517Z,101017.00
2018-07-26T18:23:55.316Z,101013.00
2018-07-26T18:26:24.207Z,101025.00
2018-07-26T18:28:53.022Z,101020.00
2018-07-26T18:31:21.975Z,101020.00
2018-07-26T18:33:50.794Z,101022.00
2018-07-26T18:36:19.662Z,101021.00
2018-07-26T18:38:48.518Z,101022.00
2018-07-26T18:41:17.308Z,101027.00
2018-07-26T18:43:46.144Z,101035.00
2018-07-26T18:46:15.026Z,101034.00
2018-07-26T18:48:43.847Z,101030.00
2018-07-26T18:51:12.678Z,101032.00
2018-07-26T18:53:41.507Z,101037.00
2018-07-26T18:56:10.423Z,101034.00
2018-07-26T18:58:39.246Z,101040.00
2018-07-26T19:01:08.093Z,101040.00
2018-07-26T19:03:36.903Z,101045.00
2018-07-26T19:06:06.020Z,101042.00
2018-07-26T19:08:34.889Z,101044.00
2018-07-26T19:11:03.733Z,101056.00
2018-07-26T19:13:32.551Z,101057.00
2018-07-26T19:16:01.416Z,101057.00
2018-07-26T19:18:30.272Z,101059.00
2018-07-26T19:20:59.080Z,101065.00
2018-07-26T19:23:27.899Z,101065.00
2018-07-26T19:25:56.804Z,101069.00
2018-07-26T19:28:25.614Z,101073.00
2018-07-26T19:30:54.462Z,101074.00
2018-07-26T19:33:23.321Z,101082.00
2018-07-26T19:35:52.176Z,101082.00
2018-07-26T19:38:21.055Z,101091.00
2018-07-26T19:40:49.909Z,101088.00
2018-07-26T19:43:18.799Z,101086.00
2018-07-26T19:45:47.662Z,101087.00
2018-07-26T19:48:16.481Z,101081.00
2018-07-26T19:50:45.340Z,101087.00
2018-07-26T19:53:14.171Z,101080.00
2018-07-26T19:55:43.045Z,101085.00
2018-07-26T19:58:11.927Z,101081.00
2018-07-26T20:00:40.786Z,101080.00
2018-07-26T20:03:09.649Z,101086.00
2018-07-26T20:05:38.500Z,101091.00
2018-07-26T20:08:07.894Z,101090.00
2018-07-26T20:10:36.732Z,101088.00
2018-07-26T20:13:05.687Z,101091.00
2018-07-26T20:15:34.484Z,101099.00
2018-07-26T20:18:03.349Z,101096.00
2018-07-26T20:20:32.195Z,101087.00
2018-07-26T20:23:01.069Z,101092.00
2018-07-26T20:25:29.977Z,101088.00
2018-07-26T20:27:58.816Z,101095.00
2018-07-26T20:30:27.679Z,101100.00
2018-07-26T20:32:56.636Z,101102.00
2018-07-26T20:35:25.457Z,101101.00
2018-07-26T20:37:54.320Z,101104.00
2018-07-26T20:40:23.191Z,101099.00
2018-07-26T20:42:52.032Z,101103.00
2018-07-26T20:45:20.880Z,101095.00
2018-07-26T20:47:49.695Z,101102.00
2018-07-26T20:50:18.553Z,101103.00
2018-07-26T20:52:47.424Z,101104.00
2018-07-26T20:55:16.240Z,101101.00
2018-07-26T20:57:45.035Z,101103.00
2018-07-26T21:00:14.282Z,101100.00
2018-07-26T21:02:43.568Z,101101.00
2018-07-26T21:05:12.467Z,101103.00
2018-07-26T21:07:41.302Z,101102.00
2018-07-26T21:10:10.894Z,101096.00
2018-07-26T21:12:39.755Z,101101.00
2018-07-26T21:15:09.546Z,101100.00
2018-07-26T21:17:38.407Z,101102.00
2018-07-26T21:20:07.270Z,101099.00
2018-07-26T21:22:36.144Z,101106.00
2018-07-26T21:25:05.045Z,101104.00
2018-07-26T21:27:33.851Z,101116.00
2018-07-26T21:30:02.736Z,101106.00
2018-07-26T21:32:31.567Z,101110.00
2018-07-26T21:35:00.416Z,101121.00
2018-07-26T21:37:29.211Z,101121.00
2018-07-26T21:39:58.101Z,101120.00
2018-07-26T21:42:26.998Z,101115.00
2018-07-26T21:44:55.796Z,101115.00
2018-07-26T21:47:24.669Z,101114.00
2018-07-26T21:49:53.556Z,101117.00
2018-07-26T21:52:22.450Z,101114.00
2018-07-26T21:54:51.330Z,101111.00
2018-07-26T21:57:20.202Z,101107.00
2018-07-26T21:59:49.069Z,101114.00
2018-07-26T22:02:17.959Z,101103.00
2018-07-26T22:04:46.756Z,101105.00
2018-07-26T22:07:15.592Z,101102.00
2018-07-26T22:09:44.435Z,101095.00
2018-07-26T22:12:13.262Z,101102.00
2018-07-26T22:14:42.058Z,101105.00
2018-07-26T22:17:11.098Z,101102.00
2018-07-26T22:19:39.959Z,101104.00
2018-07-26T22:22:08.917Z,101099.00
2018-07-26T22:24:37.795Z,101110.00
2018-07-26T22:27:06.718Z,101104.00
2018-07-26T22:29:35.589Z,101105.00
2018-07-26T22:32:04.419Z,101109.00
2018-07-26T22:34:33.321Z,101105.00
2018-07-26T22:37:02.183Z,101101.00
2018-07-26T22:39:31.041Z,101096.00
2018-07-26T22:42:00.106Z,101103.00
2018-07-26T22:44:28.935Z,101088.00
2018-07-26T22:46:57.800Z,101094.00
2018-07-26T22:49:26.619Z,101103.00
2018-07-26T22:51:55.512Z,101106.00
2018-07-26T22:54:24.318Z,101108.00
2018-07-26T22:56:53.191Z,101105.00
2018-07-26T22:59:22.021Z,101104.00
2018-07-26T23:01:50.810Z,101107.00
2018-07-26T23:04:19.627Z,101099.00
2018-07-26T23:06:48.511Z,101105.00
2018-07-26T23:09:17.306Z,101104.00
2018-07-26T23:11:46.167Z,101096.00
2018-07-26T23:14:15.001Z,101096.00
2018-07-26T23:16:43.884Z,101105.00
2018-07-26T23:19:12.724Z,101106.00
2018-07-26T23:21:41.552Z,101104.00
2018-07-26T23:24:10.517Z,101096.00
2018-07-26T23:26:39.365Z,101091.00
2018-07-26T23:29:08.244Z,101092.00
2018-07-26T23:31:37.121Z,101102.00
2018-07-26T23:34:05.959Z,101103.00
2018-07-26T23:36:34.840Z,101104.00
2018-07-26T23:39:04.341Z,101091.00
2018-07-26T23:41:33.204Z,101096.00
2018-07-26T23:44:02.040Z,101091.00
2018-07-26T23:46:30.958Z,101088.00
2018-07-26T23:48:59.787Z,101087.00
2018-07-26T23:51:28.651Z,101085.00
2018-07-26T23:53:57.504Z,101081.00
2018-07-26T23:56:26.343Z,101087.00
2018-07-26T23:58:55.244Z,101080.00
